createdAt,value
2023-01-30T00:00:25.025Z,98388.59
2023-01-30T00:03:30.301Z,98411.91
2023-01-30T00:06:37.117Z,98417.41
2023-01-30T00:09:42.351Z,98396.19
2023-01-30T00:12:47.816Z,98398.53
2023-01-30T00:15:52.941Z,98363.22
2023-01-30T00:18:58.199Z,98365.44
2023-01-30T00:22:04.915Z,98364.69
2023-01-30T00:25:13.601Z,98339.28
2023-01-30T00:28:18.862Z,98342.34
2023-01-30T00:31:26.665Z,98315.22
2023-01-30T00:34:31.747Z,98321.03
2023-01-30T00:37:38.407Z,98317.81
2023-01-30T00:40:44.706Z,98323.84
2023-01-30T00:44:07.144Z,98311.88
2023-01-30T00:47:14.044Z,98308.13
2023-01-30T00:50:19.907Z,98313.44
2023-01-30T00:53:26.725Z,98305.34
2023-01-30T00:56:31.836Z,98282.84
2023-01-30T00:59:37.208Z,98268.16
2023-01-30T01:02:42.746Z,98253.78
2023-01-30T01:05:47.949Z,98264.38
2023-01-30T01:08:54.296Z,98256.72
2023-01-30T01:11:59.400Z,98248.03
2023-01-30T01:15:04.896Z,98233.78
2023-01-30T01:18:13.598Z,98223.22
2023-01-30T01:21:20.336Z,98215.47
2023-01-30T01:24:27.899Z,98209.19
2023-01-30T01:27:33.442Z,98186.72
2023-01-30T01:30:39.959Z,98189.06
2023-01-30T01:33:49.165Z,98190.97
2023-01-30T01:36:54.932Z,98186.31
2023-01-30T01:40:18.769Z,98194.69
2023-01-30T01:43:25.749Z,98169.38
2023-01-30T01:46:33.479Z,98173.72
2023-01-30T01:49:39.806Z,98165.88
2023-01-30T01:52:45.749Z,98159.75
2023-01-30T01:56:04.918Z,98147.47
2023-01-30T01:59:15.578Z,98152.06
2023-01-30T02:02:23.517Z,98143.16
2023-01-30T02:05:33.142Z,98139.50
2023-01-30T02:08:40.924Z,98133.09
2023-01-30T02:11:51.298Z,98123.50
2023-01-30T02:14:58.563Z,98100.38
2023-01-30T02:18:05.729Z,98087.81
2023-01-30T02:21:34.740Z,98098.72
2023-01-30T02:24:59.317Z,98102.31
2023-01-30T02:28:26.421Z,98101.41
2023-01-30T02:31:42.297Z,98091.50
2023-01-30T02:34:51.238Z,98083.16
2023-01-30T02:38:08.190Z,98091.38
2023-01-30T02:41:20.263Z,98086.53
2023-01-30T02:44:28.639Z,98089.44
2023-01-30T02:47:39.996Z,98097.69
2023-01-30T02:50:49.233Z,98059.47
2023-01-30T02:53:54.447Z,98072.16
2023-01-30T02:57:01.184Z,98056.72
2023-01-30T03:00:09.504Z,98043.84
2023-01-30T03:03:34.456Z,98058.00
2023-01-30T03:07:11.268Z,98050.88
2023-01-30T03:10:24.173Z,98036.97
2023-01-30T03:13:46.850Z,98033.88
2023-01-30T03:16:54.524Z,98030.53
2023-01-30T03:20:04.117Z,98051.53
2023-01-30T03:23:14.145Z,98038.38
2023-01-30T03:26:23.951Z,98033.59
2023-01-30T03:29:29.484Z,98031.25
2023-01-30T03:32:34.656Z,98029.44
2023-01-30T03:35:44.855Z,98023.44
2023-01-30T03:38:53.331Z,98020.03
2023-01-30T03:42:00.997Z,98012.94
2023-01-30T03:45:06.441Z,98012.19
2023-01-30T03:48:12.928Z,98010.22
2023-01-30T03:51:19.474Z,98000.63
2023-01-30T03:54:24.761Z,97999.44
2023-01-30T03:57:30.168Z,98001.22
2023-01-30T04:00:36.220Z,98008.28
2023-01-30T04:03:42.733Z,98005.81
2023-01-30T04:06:49.319Z,98014.22
2023-01-30T04:09:54.862Z,97998.34
2023-01-30T04:13:00.137Z,98011.06
2023-01-30T04:16:20.084Z,98009.88
2023-01-30T04:19:43.819Z,97992.31
2023-01-30T04:22:50.541Z,97997.75
2023-01-30T04:25:55.988Z,97997.38
2023-01-30T04:29:03.503Z,97994.13
2023-01-30T04:32:09.324Z,97987.19
2023-01-30T04:35:16.702Z,97976.41
2023-01-30T04:38:23.863Z,97981.31
2023-01-30T04:41:28.993Z,97962.56
2023-01-30T04:44:38.351Z,97962.28
2023-01-30T04:47:51.429Z,97970.63
2023-01-30T04:50:59.949Z,97955.25
2023-01-30T04:54:06.714Z,97951.13
2023-01-30T04:57:13.223Z,97965.31
2023-01-30T05:00:19.141Z,97945.63
2023-01-30T05:03:30.345Z,97953.19
2023-01-30T05:06:36.783Z,97937.50
2023-01-30T05:09:43.338Z,97949.78
2023-01-30T05:12:49.759Z,97938.31
2023-01-30T05:15:54.993Z,97945.19
2023-01-30T05:19:02.096Z,97953.28
2023-01-30T05:22:07.101Z,97935.16
2023-01-30T05:25:14.374Z,97943.91
2023-01-30T05:28:30.541Z,97948.53
2023-01-30T05:31:36.376Z,97943.28
2023-01-30T05:34:41.415Z,97935.28
2023-01-30T05:37:46.445Z,97940.13
2023-01-30T05:41:02.305Z,97941.16
2023-01-30T05:44:07.539Z,97945.19
2023-01-30T05:47:12.981Z,97949.97
2023-01-30T05:50:20.114Z,97947.59
2023-01-30T05:53:31.149Z,97938.63
2023-01-30T05:56:37.787Z,97943.13
2023-01-30T05:59:47.883Z,97942.31
2023-01-30T06:02:52.978Z,97928.94
2023-01-30T06:05:58.664Z,97940.38
2023-01-30T06:09:04.714Z,97946.44
2023-01-30T06:12:12.095Z,97951.09
2023-01-30T06:15:19.108Z,97956.69
2023-01-30T06:18:24.509Z,97950.63
2023-01-30T06:21:29.739Z,97964.53
2023-01-30T06:24:34.762Z,97975.06
2023-01-30T06:27:41.565Z,97972.59
2023-01-30T06:30:46.939Z,97958.81
2023-01-30T06:33:52.034Z,97964.44
2023-01-30T06:36:57.349Z,97960.09
2023-01-30T06:40:02.156Z,97959.38
2023-01-30T06:43:09.111Z,97951.72
2023-01-30T06:46:14.780Z,97957.88
2023-01-30T06:49:20.340Z,97961.91
2023-01-30T06:52:25.398Z,97955.53
2023-01-30T06:55:30.630Z,97947.50
2023-01-30T06:58:37.732Z,97963.41
2023-01-30T07:01:42.693Z,97964.78
2023-01-30T07:04:47.873Z,97979.63
2023-01-30T07:07:53.992Z,97987.72
2023-01-30T07:10:59.109Z,97972.31
2023-01-30T07:14:07.798Z,97957.56
2023-01-30T07:17:16.162Z,97961.16
2023-01-30T07:20:21.329Z,97953.72
2023-01-30T07:23:26.552Z,97980.16
2023-01-30T07:26:31.842Z,97976.63
2023-01-30T07:29:38.805Z,97958.81
2023-01-30T07:32:46.014Z,97956.44
2023-01-30T07:35:51.015Z,97953.25
2023-01-30T07:38:56.646Z,97957.47
2023-01-30T07:42:02.511Z,97952.44
2023-01-30T07:45:10.793Z,97960.97
2023-01-30T07:48:18.515Z,97954.03
2023-01-30T07:51:25.239Z,97958.47
2023-01-30T07:54:30.357Z,97957.75
2023-01-30T07:57:35.541Z,97952.75
2023-01-30T08:00:45.007Z,97949.28
2023-01-30T08:03:51.322Z,97952.63
2023-01-30T08:06:56.134Z,97967.34
2023-01-30T08:10:01.743Z,97947.75
2023-01-30T08:13:06.926Z,97964.03
2023-01-30T08:16:14.920Z,97955.78
2023-01-30T08:19:23.367Z,97962.41
2023-01-30T08:22:29.369Z,97954.38
2023-01-30T08:25:35.510Z,97953.34
2023-01-30T08:28:41.794Z,97966.44
2023-01-30T08:31:48.919Z,97961.25
2023-01-30T08:34:54.422Z,97964.34
2023-01-30T08:37:59.999Z,97957.50
2023-01-30T08:41:07.723Z,97958.34
2023-01-30T08:44:14.619Z,97954.03
2023-01-30T08:47:21.564Z,97959.97
2023-01-30T08:50:27.379Z,97962.56
2023-01-30T08:53:32.860Z,97951.63
2023-01-30T08:56:38.224Z,97950.06
2023-01-30T08:59:43.444Z,97946.56
2023-01-30T09:02:52.490Z,97941.59
2023-01-30T09:05:57.981Z,97944.78
2023-01-30T09:09:03.170Z,97932.31
2023-01-30T09:12:08.756Z,97942.19
2023-01-30T09:15:14.129Z,97944.66
2023-01-30T09:18:21.199Z,97923.69
2023-01-30T09:21:26.495Z,97936.38
2023-01-30T09:24:31.552Z,97952.84
2023-01-30T09:27:37.089Z,97940.00
2023-01-30T09:30:42.353Z,97930.91
2023-01-30T09:33:48.973Z,97926.00
2023-01-30T09:36:54.350Z,97932.38
2023-01-30T09:39:59.547Z,97929.91
2023-01-30T09:43:20.502Z,97938.19
2023-01-30T09:46:34.832Z,97949.78
2023-01-30T09:49:51.234Z,97944.44
2023-01-30T09:53:05.670Z,97947.78
2023-01-30T09:56:15.117Z,97945.41
2023-01-30T09:59:25.697Z,97930.38
2023-01-30T10:02:41.179Z,97924.78
2023-01-30T10:05:50.514Z,97938.91
2023-01-30T10:09:02.639Z,97934.25
2023-01-30T10:12:24.723Z,97919.91
2023-01-30T10:15:41.709Z,97928.66
2023-01-30T10:18:57.139Z,97931.63
2023-01-30T10:22:11.909Z,97942.34
2023-01-30T10:25:25.357Z,97937.81
2023-01-30T10:28:34.039Z,97937.88
2023-01-30T10:31:44.507Z,97931.13
2023-01-30T10:34:52.496Z,97920.13
2023-01-30T10:38:04.769Z,97922.25
2023-01-30T10:41:19.789Z,97917.00
2023-01-30T10:44:25.558Z,97922.25
2023-01-30T10:47:47.128Z,97912.09
2023-01-30T10:50:57.635Z,97917.19
2023-01-30T10:54:10.298Z,97924.50
2023-01-30T10:57:24.053Z,97917.44
2023-01-30T11:00:31.538Z,97914.41
2023-01-30T11:03:41.725Z,97905.63
2023-01-30T11:06:47.308Z,97917.59
2023-01-30T11:09:54.388Z,97934.47
2023-01-30T11:13:03.011Z,97931.47
2023-01-30T11:16:10.188Z,97928.75
2023-01-30T11:19:20.252Z,97923.91
2023-01-30T11:22:27.733Z,97934.41
2023-01-30T11:25:51.187Z,97927.09
2023-01-30T11:28:58.608Z,97938.31
2023-01-30T11:32:07.020Z,97938.72
2023-01-30T11:35:34.746Z,97924.13
2023-01-30T11:38:40.227Z,97936.03
2023-01-30T11:42:01.881Z,97931.88
2023-01-30T11:45:17.822Z,97937.13
2023-01-30T11:48:33.282Z,97931.19
2023-01-30T11:51:55.765Z,97914.44
2023-01-30T11:55:05.498Z,97931.72
2023-01-30T11:58:17.980Z,97917.34
2023-01-30T12:01:24.431Z,97942.94
2023-01-30T12:04:30.782Z,97950.38
2023-01-30T12:07:37.015Z,97955.44
2023-01-30T12:10:44.025Z,97955.44
2023-01-30T12:13:51.515Z,97968.97
2023-01-30T12:17:03.761Z,97978.19
2023-01-30T12:20:18.147Z,97983.53
2023-01-30T12:23:32.598Z,97963.03
2023-01-30T12:26:42.363Z,97961.38
2023-01-30T12:29:59.866Z,97951.69
2023-01-30T12:33:06.661Z,97945.97
2023-01-30T12:36:21.233Z,97947.25
2023-01-30T12:39:36.979Z,97946.28
2023-01-30T12:43:05.261Z,97938.25
2023-01-30T12:46:25.009Z,97944.59
2023-01-30T12:49:44.539Z,97970.00
2023-01-30T12:53:07.218Z,97948.59
2023-01-30T12:56:30.475Z,97947.13
2023-01-30T12:59:44.410Z,97943.44
2023-01-30T13:03:08.569Z,97955.59
2023-01-30T13:06:26.260Z,97962.50
2023-01-30T13:09:55.906Z,97966.88
2023-01-30T13:13:12.478Z,97961.81
2023-01-30T13:16:25.162Z,97971.94
2023-01-30T13:19:40.967Z,97972.53
2023-01-30T13:22:51.237Z,97985.84
2023-01-30T13:26:01.150Z,97985.72
2023-01-30T13:29:11.526Z,97983.81
2023-01-30T13:32:19.434Z,97988.13
2023-01-30T13:35:32.707Z,97983.75
2023-01-30T13:38:45.249Z,97997.53
2023-01-30T13:41:54.599Z,97994.00
2023-01-30T13:45:00.778Z,98011.22
2023-01-30T13:48:16.942Z,98021.53
2023-01-30T13:51:37.920Z,98034.88
2023-01-30T13:54:52.226Z,98045.34
2023-01-30T13:58:02.567Z,98047.84
2023-01-30T14:01:07.923Z,98056.94
2023-01-30T14:04:45.110Z,98064.22
2023-01-30T14:07:52.350Z,98065.88
2023-01-30T14:10:59.293Z,98091.00
2023-01-30T14:14:22.549Z,98114.56
2023-01-30T14:17:27.758Z,98103.28
2023-01-30T14:20:34.999Z,98127.53
2023-01-30T14:23:42.352Z,98130.28
2023-01-30T14:27:03.330Z,98147.97
2023-01-30T14:30:35.473Z,98157.63
2023-01-30T14:33:52.141Z,98158.47
2023-01-30T14:36:57.269Z,98162.75
2023-01-30T14:40:05.255Z,98175.66
2023-01-30T14:43:52.588Z,98174.72
2023-01-30T14:46:58.944Z,98184.97
2023-01-30T14:50:14.630Z,98195.97
2023-01-30T14:53:20.208Z,98201.97
2023-01-30T14:56:40.968Z,98204.38
2023-01-30T15:00:12.159Z,98206.91
2023-01-30T15:03:20.432Z,98227.38
2023-01-30T15:06:27.539Z,98233.88
2023-01-30T15:09:34.056Z,98248.91
2023-01-30T15:12:58.534Z,98252.47
2023-01-30T15:16:12.945Z,98261.84
2023-01-30T15:19:42.261Z,98256.97
2023-01-30T15:23:04.172Z,98265.59
2023-01-30T15:26:18.556Z,98274.22
2023-01-30T15:29:36.356Z,98291.84
2023-01-30T15:32:43.542Z,98298.84
2023-01-30T15:35:56.464Z,98303.84
2023-01-30T15:39:04.135Z,98317.50
2023-01-30T15:42:09.774Z,98333.25
2023-01-30T15:45:20.746Z,98337.38
2023-01-30T15:48:43.035Z,98355.34
2023-01-30T15:51:48.511Z,98355.59
2023-01-30T15:54:55.057Z,98367.34
2023-01-30T15:58:02.143Z,98383.09
2023-01-30T16:01:10.793Z,98368.00
2023-01-30T16:04:28.477Z,98384.66
2023-01-30T16:07:34.964Z,98411.84
2023-01-30T16:10:50.127Z,98424.16
2023-01-30T16:13:55.310Z,98425.44
2023-01-30T16:17:07.511Z,98438.94
2023-01-30T16:20:16.600Z,98468.66
2023-01-30T16:23:24.018Z,98459.13
2023-01-30T16:26:29.268Z,98468.19
2023-01-30T16:29:38.538Z,98469.31
2023-01-30T16:32:45.087Z,98480.19
2023-01-30T16:35:50.925Z,98493.91
2023-01-30T16:38:56.354Z,98492.22
2023-01-30T16:42:03.502Z,98511.69
2023-01-30T16:45:46.014Z,98525.94
2023-01-30T16:48:52.503Z,98536.75
2023-01-30T16:52:05.745Z,98541.59
2023-01-30T16:55:21.750Z,98570.50
2023-01-30T16:58:32.419Z,98565.03
2023-01-30T17:01:39.836Z,98580.91
2023-01-30T17:04:46.394Z,98629.66
2023-01-30T17:07:53.057Z,98594.16
2023-01-30T17:11:00.459Z,98606.47
2023-01-30T17:14:19.114Z,98613.75
2023-01-30T17:17:24.332Z,98622.13
2023-01-30T17:20:41.823Z,98636.38
2023-01-30T17:23:49.671Z,98642.72
2023-01-30T17:26:59.266Z,98660.16
2023-01-30T17:30:04.709Z,98658.63
2023-01-30T17:33:12.143Z,98673.69
2023-01-30T17:36:24.096Z,98690.13
2023-01-30T17:39:29.549Z,98695.47
2023-01-30T17:42:34.889Z,98698.19
2023-01-30T17:45:41.510Z,98699.50
2023-01-30T17:48:46.610Z,98691.78
2023-01-30T17:51:53.984Z,98706.84
2023-01-30T17:54:59.022Z,98718.41
2023-01-30T17:58:04.870Z,98735.97
2023-01-30T18:01:11.907Z,98743.38
2023-01-30T18:04:18.173Z,98736.44
2023-01-30T18:07:27.812Z,98746.91
2023-01-30T18:10:33.159Z,98748.69
2023-01-30T18:13:38.231Z,98752.19
2023-01-30T18:16:43.608Z,98754.50
2023-01-30T18:19:49.046Z,98767.56
2023-01-30T18:22:56.443Z,98768.41
2023-01-30T18:26:10.755Z,98782.81
2023-01-30T18:29:17.408Z,98779.59
2023-01-30T18:32:23.571Z,98793.81
2023-01-30T18:35:29.399Z,98799.94
2023-01-30T18:38:37.492Z,98810.06
2023-01-30T18:41:48.460Z,98804.19
2023-01-30T18:44:53.831Z,98814.59
2023-01-30T18:47:59.741Z,98821.69
2023-01-30T18:51:08.686Z,98823.16
2023-01-30T18:54:15.299Z,98834.31
2023-01-30T18:57:20.692Z,98834.16
2023-01-30T19:00:25.873Z,98846.09
2023-01-30T19:03:31.994Z,98851.88
2023-01-30T19:06:38.674Z,98869.03
2023-01-30T19:09:45.283Z,98873.25
2023-01-30T19:13:08.339Z,98894.75
2023-01-30T19:16:13.534Z,98907.59
2023-01-30T19:19:20.149Z,98918.66
2023-01-30T19:22:26.819Z,98922.25
2023-01-30T19:25:39.649Z,98920.56
2023-01-30T19:28:46.719Z,98933.66
2023-01-30T19:31:51.563Z,98932.88
2023-01-30T19:34:59.449Z,98940.34
2023-01-30T19:38:05.170Z,98953.34
2023-01-30T19:41:14.622Z,98962.16
2023-01-30T19:44:20.022Z,98965.72
2023-01-30T19:47:25.231Z,98973.50
2023-01-30T19:50:30.379Z,98981.91
2023-01-30T19:53:35.727Z,98984.19
2023-01-30T19:56:47.479Z,98989.94
2023-01-30T19:59:52.631Z,99001.03
2023-01-30T20:02:58.963Z,99010.78
2023-01-30T20:06:13.225Z,99027.41
2023-01-30T20:09:26.723Z,99038.53
2023-01-30T20:12:34.976Z,99034.34
2023-01-30T20:15:41.914Z,99033.59
2023-01-30T20:18:48.195Z,99040.97
2023-01-30T20:21:54.772Z,99057.09
2023-01-30T20:25:00.290Z,99064.75
2023-01-30T20:28:06.996Z,99070.72
2023-01-30T20:31:13.526Z,99080.03
2023-01-30T20:34:18.968Z,99075.81
2023-01-30T20:37:25.873Z,99083.59
2023-01-30T20:40:31.127Z,99086.94
2023-01-30T20:43:38.555Z,99109.69
2023-01-30T20:46:44.948Z,99116.34
2023-01-30T20:49:50.145Z,99110.41
2023-01-30T20:52:56.221Z,99125.63
2023-01-30T20:56:02.580Z,99125.63
2023-01-30T20:59:10.731Z,99137.50
2023-01-30T21:02:16.008Z,99135.94
2023-01-30T21:05:21.352Z,99149.53
2023-01-30T21:08:28.475Z,99152.19
2023-01-30T21:11:33.572Z,99157.13
2023-01-30T21:14:42.875Z,99182.44
2023-01-30T21:17:49.305Z,99164.69
2023-01-30T21:20:54.403Z,99176.63
2023-01-30T21:24:02.764Z,99175.81
2023-01-30T21:27:08.031Z,99190.16
2023-01-30T21:30:16.799Z,99187.66
2023-01-30T21:33:21.942Z,99196.75
2023-01-30T21:36:29.024Z,99202.81
2023-01-30T21:39:52.666Z,99220.41
2023-01-30T21:43:16.124Z,99220.41
2023-01-30T21:46:22.700Z,99226.09
2023-01-30T21:49:28.147Z,99239.69
2023-01-30T21:52:34.099Z,99249.25
2023-01-30T21:55:39.327Z,99255.78
2023-01-30T21:58:44.418Z,99281.97
2023-01-30T22:01:51.063Z,99267.59
2023-01-30T22:04:58.794Z,99288.69
2023-01-30T22:08:05.129Z,99286.28
2023-01-30T22:11:12.094Z,99309.91
2023-01-30T22:14:17.979Z,99306.50
2023-01-30T22:17:24.820Z,99310.72
2023-01-30T22:20:31.248Z,99314.03
2023-01-30T22:23:37.768Z,99325.13
2023-01-30T22:26:42.998Z,99336.03
2023-01-30T22:29:49.100Z,99342.81
2023-01-30T22:32:56.841Z,99340.22
2023-01-30T22:36:03.132Z,99352.78
2023-01-30T22:39:11.323Z,99359.63
2023-01-30T22:42:17.120Z,99368.91
2023-01-30T22:45:22.368Z,99371.56
2023-01-30T22:48:29.322Z,99374.88
2023-01-30T22:51:37.125Z,99385.16
2023-01-30T22:54:42.480Z,99387.88
2023-01-30T22:57:48.406Z,99396.47
2023-01-30T23:00:53.543Z,99396.59
2023-01-30T23:04:02.655Z,99399.97
2023-01-30T23:07:07.815Z,99404.38
2023-01-30T23:10:13.756Z,99421.25
2023-01-30T23:13:19.748Z,99417.09
2023-01-30T23:16:27.763Z,99419.88
2023-01-30T23:19:33.609Z,99415.72
2023-01-30T23:22:38.966Z,99419.13
2023-01-30T23:25:45.009Z,99436.94
2023-01-30T23:28:49.952Z,99451.31
2023-01-30T23:31:55.404Z,99459.69
2023-01-30T23:35:02.293Z,99451.31
2023-01-30T23:38:20.260Z,99460.75
2023-01-30T23:41:27.499Z,99468.38
2023-01-30T23:44:32.847Z,99466.78
2023-01-30T23:47:37.946Z,99464.34
2023-01-30T23:50:44.862Z,99469.34
2023-01-30T23:53:50.984Z,99477.69
2023-01-30T23:56:57.260Z,99480.44
